sensor_id;sensor_type;location;lat;lon;timestamp;temperature;humidity
25718;DHT22;13574;52.040;5.692;2023-02-01T00:01:41;8.70;99.90
25718;DHT22;13574;52.040;5.692;2023-02-01T00:04:07;8.40;99.90
25718;DHT22;13574;52.040;5.692;2023-02-01T00:06:32;8.40;99.90
25718;DHT22;13574;52.040;5.692;2023-02-01T00:08:58;8.50;99.90
25718;DHT22;13574;52.040;5.692;2023-02-01T00:11:24;8.60;99.90
25718;DHT22;13574;52.040;5.692;2023-02-01T00:13:50;8.70;99.90
25718;DHT22;13574;52.040;5.692;2023-02-01T00:16:18;8.60;99.90
25718;DHT22;13574;52.040;5.692;2023-02-01T00:18:46;8.70;99.90
25718;DHT22;13574;52.040;5.692;2023-02-01T00:21:13;8.70;99.90
25718;DHT22;13574;52.040;5.692;2023-02-01T00:23:39;8.80;99.90
25718;DHT22;13574;52.040;5.692;2023-02-01T00:26:07;8.80;99.90
25718;DHT22;13574;52.040;5.692;2023-02-01T00:28:33;8.70;99.90
25718;DHT22;13574;52.040;5.692;2023-02-01T00:31:03;8.60;99.90
25718;DHT22;13574;52.040;5.692;2023-02-01T00:33:30;8.70;99.90
25718;DHT22;13574;52.040;5.692;2023-02-01T00:36:03;8.60;99.90
25718;DHT22;13574;52.040;5.692;2023-02-01T00:38:30;8.70;99.90
25718;DHT22;13574;52.040;5.692;2023-02-01T00:41:13;8.70;99.90
25718;DHT22;13574;52.040;5.692;2023-02-01T00:43:39;8.70;99.90
25718;DHT22;13574;52.040;5.692;2023-02-01T00:46:05;8.80;99.90
25718;DHT22;13574;52.040;5.692;2023-02-01T00:48:31;8.70;99.90
25718;DHT22;13574;52.040;5.692;2023-02-01T00:51:01;8.80;99.90
25718;DHT22;13574;52.040;5.692;2023-02-01T00:53:27;8.90;99.90
25718;DHT22;13574;52.040;5.692;2023-02-01T00:55:52;8.80;99.90
25718;DHT22;13574;52.040;5.692;2023-02-01T00:58:18;8.70;99.90
25718;DHT22;13574;52.040;5.692;2023-02-01T01:00:44;8.90;99.90
25718;DHT22;13574;52.040;5.692;2023-02-01T01:03:09;9.00;99.90
25718;DHT22;13574;52.040;5.692;2023-02-01T01:05:49;8.80;99.90
25718;DHT22;13574;52.040;5.692;2023-02-01T01:08:16;8.80;99.90
25718;DHT22;13574;52.040;5.692;2023-02-01T01:10:42;8.90;99.90
25718;DHT22;13574;52.040;5.692;2023-02-01T01:13:08;8.70;99.90
25718;DHT22;13574;52.040;5.692;2023-02-01T01:15:38;8.60;99.90
25718;DHT22;13574;52.040;5.692;2023-02-01T01:18:05;8.50;99.90
25718;DHT22;13574;52.040;5.692;2023-02-01T01:20:31;8.70;99.90
25718;DHT22;13574;52.040;5.692;2023-02-01T01:22:56;8.70;99.90
25718;DHT22;13574;52.040;5.692;2023-02-01T01:25:22;8.70;99.90
25718;DHT22;13574;52.040;5.692;2023-02-01T01:27:48;8.50;99.90
25718;DHT22;13574;52.040;5.692;2023-02-01T01:30:13;8.60;99.90
25718;DHT22;13574;52.040;5.692;2023-02-01T01:32:39;8.70;99.90
25718;DHT22;13574;52.040;5.692;2023-02-01T01:35:05;8.90;99.90
25718;DHT22;13574;52.040;5.692;2023-02-01T01:37:32;8.90;99.90
25718;DHT22;13574;52.040;5.692;2023-02-01T01:39:57;8.80;99.90
25718;DHT22;13574;52.040;5.692;2023-02-01T01:42:23;8.90;99.90
25718;DHT22;13574;52.040;5.692;2023-02-01T01:45:05;8.70;99.90
25718;DHT22;13574;52.040;5.692;2023-02-01T01:47:37;8.70;99.90
25718;DHT22;13574;52.040;5.692;2023-02-01T01:50:07;8.40;99.90
25718;DHT22;13574;52.040;5.692;2023-02-01T01:52:36;8.50;99.90
25718;DHT22;13574;52.040;5.692;2023-02-01T01:55:04;8.40;99.90
25718;DHT22;13574;52.040;5.692;2023-02-01T01:57:35;8.50;99.90
25718;DHT22;13574;52.040;5.692;2023-02-01T02:00:14;8.50;99.90
25718;DHT22;13574;52.040;5.692;2023-02-01T02:02:43;8.60;99.90
25718;DHT22;13574;52.040;5.692;2023-02-01T02:05:11;8.70;99.90
25718;DHT22;13574;52.040;5.692;2023-02-01T02:07:40;8.70;99.90
25718;DHT22;13574;52.040;5.692;2023-02-01T02:10:09;8.80;99.90
25718;DHT22;13574;52.040;5.692;2023-02-01T02:12:39;8.80;99.90
25718;DHT22;13574;52.040;5.692;2023-02-01T02:15:07;8.80;99.90
25718;DHT22;13574;52.040;5.692;2023-02-01T02:17:55;8.80;99.90
25718;DHT22;13574;52.040;5.692;2023-02-01T02:20:52;8.70;99.90
25718;DHT22;13574;52.040;5.692;2023-02-01T02:23:56;8.70;99.90
25718;DHT22;13574;52.040;5.692;2023-02-01T02:26:36;8.90;99.90
25718;DHT22;13574;52.040;5.692;2023-02-01T02:38:30;8.90;99.90
25718;DHT22;13574;52.040;5.692;2023-02-01T02:43:46;8.90;99.90
25718;DHT22;13574;52.040;5.692;2023-02-01T02:46:39;9.10;99.90
25718;DHT22;13574;52.040;5.692;2023-02-01T02:49:39;9.10;99.90
25718;DHT22;13574;52.040;5.692;2023-02-01T02:52:15;9.10;99.90
25718;DHT22;13574;52.040;5.692;2023-02-01T02:55:01;9.10;99.90
25718;DHT22;13574;52.040;5.692;2023-02-01T02:57:40;9.00;99.90
25718;DHT22;13574;52.040;5.692;2023-02-01T03:00:32;9.10;99.90
25718;DHT22;13574;52.040;5.692;2023-02-01T03:03:17;9.10;99.90
25718;DHT22;13574;52.040;5.692;2023-02-01T03:06:01;9.20;99.90
25718;DHT22;13574;52.040;5.692;2023-02-01T03:08:30;9.10;99.90
25718;DHT22;13574;52.040;5.692;2023-02-01T03:11:10;9.30;99.90
25718;DHT22;13574;52.040;5.692;2023-02-01T03:13:58;9.30;99.90
25718;DHT22;13574;52.040;5.692;2023-02-01T03:19:03;9.30;99.90
25718;DHT22;13574;52.040;5.692;2023-02-01T03:24:04;9.20;99.90
25718;DHT22;13574;52.040;5.692;2023-02-01T03:26:36;9.00;99.90
25718;DHT22;13574;52.040;5.692;2023-02-01T03:29:05;9.00;99.90
25718;DHT22;13574;52.040;5.692;2023-02-01T03:31:33;9.00;99.90
25718;DHT22;13574;52.040;5.692;2023-02-01T03:33:58;9.20;99.90
25718;DHT22;13574;52.040;5.692;2023-02-01T03:36:31;9.30;99.90
25718;DHT22;13574;52.040;5.692;2023-02-01T03:39:14;9.50;99.90
25718;DHT22;13574;52.040;5.692;2023-02-01T03:42:09;9.50;99.90
25718;DHT22;13574;52.040;5.692;2023-02-01T03:47:35;9.40;99.90
25718;DHT22;13574;52.040;5.692;2023-02-01T03:50:10;9.30;99.90
25718;DHT22;13574;52.040;5.692;2023-02-01T03:52:42;9.40;99.90
25718;DHT22;13574;52.040;5.692;2023-02-01T03:55:10;9.10;99.90
25718;DHT22;13574;52.040;5.692;2023-02-01T03:57:41;9.00;99.90
25718;DHT22;13574;52.040;5.692;2023-02-01T04:00:21;9.10;99.90
25718;DHT22;13574;52.040;5.692;2023-02-01T04:02:47;9.00;99.90
25718;DHT22;13574;52.040;5.692;2023-02-01T04:05:13;9.00;99.90
25718;DHT22;13574;52.040;5.692;2023-02-01T04:07:39;8.90;99.90
25718;DHT22;13574;52.040;5.692;2023-02-01T04:10:05;9.00;99.90
25718;DHT22;13574;52.040;5.692;2023-02-01T04:12:31;9.00;99.90
25718;DHT22;13574;52.040;5.692;2023-02-01T04:14:56;9.00;99.90
25718;DHT22;13574;52.040;5.692;2023-02-01T04:17:22;9.00;99.90
25718;DHT22;13574;52.040;5.692;2023-02-01T04:19:48;8.90;99.90
25718;DHT22;13574;52.040;5.692;2023-02-01T04:22:13;8.60;99.90
25718;DHT22;13574;52.040;5.692;2023-02-01T04:24:39;8.60;99.90
25718;DHT22;13574;52.040;5.692;2023-02-01T04:27:05;8.90;99.90
25718;DHT22;13574;52.040;5.692;2023-02-01T04:29:30;8.90;99.90
25718;DHT22;13574;52.040;5.692;2023-02-01T04:31:56;9.00;99.90
25718;DHT22;13574;52.040;5.692;2023-02-01T04:34:22;9.20;99.90
25718;DHT22;13574;52.040;5.692;2023-02-01T04:36:50;9.20;99.90
25718;DHT22;13574;52.040;5.692;2023-02-01T04:39:16;9.10;99.90
25718;DHT22;13574;52.040;5.692;2023-02-01T04:41:41;9.30;99.90
25718;DHT22;13574;52.040;5.692;2023-02-01T04:44:13;9.30;99.90
25718;DHT22;13574;52.040;5.692;2023-02-01T04:46:40;9.30;99.90
25718;DHT22;13574;52.040;5.692;2023-02-01T04:49:05;9.30;99.90
25718;DHT22;13574;52.040;5.692;2023-02-01T04:51:31;9.20;99.90
25718;DHT22;13574;52.040;5.692;2023-02-01T04:53:57;9.00;99.90
25718;DHT22;13574;52.040;5.692;2023-02-01T04:56:23;9.00;99.90
25718;DHT22;13574;52.040;5.692;2023-02-01T04:58:49;9.20;99.90
25718;DHT22;13574;52.040;5.692;2023-02-01T05:01:14;9.30;99.90
25718;DHT22;13574;52.040;5.692;2023-02-01T05:03:40;9.50;99.90
25718;DHT22;13574;52.040;5.692;2023-02-01T05:06:05;9.70;99.90
25718;DHT22;13574;52.040;5.692;2023-02-01T05:08:32;9.50;99.90
25718;DHT22;13574;52.040;5.692;2023-02-01T05:10:57;9.20;99.90
25718;DHT22;13574;52.040;5.692;2023-02-01T05:13:24;9.30;99.90
25718;DHT22;13574;52.040;5.692;2023-02-01T05:16:09;9.40;99.90
25718;DHT22;13574;52.040;5.692;2023-02-01T05:18:35;9.40;99.90
25718;DHT22;13574;52.040;5.692;2023-02-01T05:21:00;9.30;99.90
25718;DHT22;13574;52.040;5.692;2023-02-01T05:23:27;9.50;99.90
25718;DHT22;13574;52.040;5.692;2023-02-01T05:25:57;9.40;99.90
25718;DHT22;13574;52.040;5.692;2023-02-01T05:28:23;9.60;99.90
25718;DHT22;13574;52.040;5.692;2023-02-01T05:30:48;9.80;99.90
25718;DHT22;13574;52.040;5.692;2023-02-01T05:33:14;9.80;99.90
25718;DHT22;13574;52.040;5.692;2023-02-01T05:35:40;9.50;99.90
25718;DHT22;13574;52.040;5.692;2023-02-01T05:38:05;9.40;99.90
25718;DHT22;13574;52.040;5.692;2023-02-01T05:40:31;9.30;99.90
25718;DHT22;13574;52.040;5.692;2023-02-01T05:42:56;9.10;99.90
25718;DHT22;13574;52.040;5.692;2023-02-01T05:45:22;9.20;99.90
25718;DHT22;13574;52.040;5.692;2023-02-01T05:47:48;9.30;99.90
25718;DHT22;13574;52.040;5.692;2023-02-01T05:50:13;9.40;99.90
25718;DHT22;13574;52.040;5.692;2023-02-01T05:52:39;9.40;99.90
25718;DHT22;13574;52.040;5.692;2023-02-01T05:55:05;9.60;99.90
25718;DHT22;13574;52.040;5.692;2023-02-01T05:57:30;9.70;99.90
25718;DHT22;13574;52.040;5.692;2023-02-01T05:59:56;9.60;99.90
25718;DHT22;13574;52.040;5.692;2023-02-01T06:02:22;9.50;99.90
25718;DHT22;13574;52.040;5.692;2023-02-01T06:04:49;9.30;99.90
25718;DHT22;13574;52.040;5.692;2023-02-01T06:07:15;9.00;99.90
25718;DHT22;13574;52.040;5.692;2023-02-01T06:09:41;9.40;99.90
25718;DHT22;13574;52.040;5.692;2023-02-01T06:12:07;9.20;99.90
25718;DHT22;13574;52.040;5.692;2023-02-01T06:14:32;9.10;99.90
25718;DHT22;13574;52.040;5.692;2023-02-01T06:16:58;8.90;99.90
25718;DHT22;13574;52.040;5.692;2023-02-01T06:19:23;9.10;99.90
25718;DHT22;13574;52.040;5.692;2023-02-01T06:21:49;9.10;99.90
25718;DHT22;13574;52.040;5.692;2023-02-01T06:24:15;9.10;99.90
25718;DHT22;13574;52.040;5.692;2023-02-01T06:26:41;9.30;99.90
25718;DHT22;13574;52.040;5.692;2023-02-01T06:29:09;9.50;99.90
25718;DHT22;13574;52.040;5.692;2023-02-01T06:31:34;9.60;99.90
25718;DHT22;13574;52.040;5.692;2023-02-01T06:34:00;9.30;99.90
25718;DHT22;13574;52.040;5.692;2023-02-01T06:36:26;9.10;99.90
25718;DHT22;13574;52.040;5.692;2023-02-01T06:38:52;9.30;99.90
25718;DHT22;13574;52.040;5.692;2023-02-01T06:41:17;9.40;99.90
25718;DHT22;13574;52.040;5.692;2023-02-01T06:43:45;9.40;99.90
25718;DHT22;13574;52.040;5.692;2023-02-01T06:46:12;9.20;99.90
25718;DHT22;13574;52.040;5.692;2023-02-01T06:48:38;9.30;99.90
25718;DHT22;13574;52.040;5.692;2023-02-01T06:51:04;9.50;99.90
25718;DHT22;13574;52.040;5.692;2023-02-01T06:53:30;9.40;99.90
25718;DHT22;13574;52.040;5.692;2023-02-01T06:55:58;9.50;99.90
25718;DHT22;13574;52.040;5.692;2023-02-01T06:58:27;9.50;99.90
25718;DHT22;13574;52.040;5.692;2023-02-01T07:00:53;9.70;99.90
25718;DHT22;13574;52.040;5.692;2023-02-01T07:03:19;9.30;99.90
25718;DHT22;13574;52.040;5.692;2023-02-01T07:05:45;9.10;99.90
25718;DHT22;13574;52.040;5.692;2023-02-01T07:08:10;9.20;99.90
25718;DHT22;13574;52.040;5.692;2023-02-01T07:10:36;9.30;99.90
25718;DHT22;13574;52.040;5.692;2023-02-01T07:13:02;9.20;99.90
25718;DHT22;13574;52.040;5.692;2023-02-01T07:15:28;9.20;99.90
25718;DHT22;13574;52.040;5.692;2023-02-01T07:17:54;9.10;99.90
25718;DHT22;13574;52.040;5.692;2023-02-01T07:20:20;9.10;99.90
25718;DHT22;13574;52.040;5.692;2023-02-01T07:22:46;9.20;99.90
25718;DHT22;13574;52.040;5.692;2023-02-01T07:25:12;9.20;99.90
25718;DHT22;13574;52.040;5.692;2023-02-01T07:27:37;9.10;99.90
25718;DHT22;13574;52.040;5.692;2023-02-01T07:30:04;8.90;99.90
25718;DHT22;13574;52.040;5.692;2023-02-01T07:32:30;8.90;99.90
25718;DHT22;13574;52.040;5.692;2023-02-01T07:34:57;9.00;99.90
25718;DHT22;13574;52.040;5.692;2023-02-01T07:37:23;9.00;99.90
25718;DHT22;13574;52.040;5.692;2023-02-01T07:39:50;8.90;99.90
25718;DHT22;13574;52.040;5.692;2023-02-01T07:42:16;8.90;99.90
25718;DHT22;13574;52.040;5.692;2023-02-01T07:44:42;9.00;99.90
25718;DHT22;13574;52.040;5.692;2023-02-01T07:47:07;8.90;99.90
25718;DHT22;13574;52.040;5.692;2023-02-01T07:49:33;9.00;99.90
25718;DHT22;13574;52.040;5.692;2023-02-01T07:51:59;9.00;99.90
25718;DHT22;13574;52.040;5.692;2023-02-01T07:54:24;9.00;99.90
25718;DHT22;13574;52.040;5.692;2023-02-01T07:56:50;9.00;99.90
25718;DHT22;13574;52.040;5.692;2023-02-01T07:59:15;9.10;99.90
25718;DHT22;13574;52.040;5.692;2023-02-01T08:01:41;8.90;99.90
25718;DHT22;13574;52.040;5.692;2023-02-01T08:04:10;9.10;99.90
25718;DHT22;13574;52.040;5.692;2023-02-01T08:06:36;9.20;99.90
25718;DHT22;13574;52.040;5.692;2023-02-01T08:09:03;9.20;99.90
25718;DHT22;13574;52.040;5.692;2023-02-01T08:11:29;9.30;99.90
25718;DHT22;13574;52.040;5.692;2023-02-01T08:13:55;9.30;99.90
25718;DHT22;13574;52.040;5.692;2023-02-01T08:16:23;9.30;99.90
25718;DHT22;13574;52.040;5.692;2023-02-01T08:18:48;9.40;99.90
25718;DHT22;13574;52.040;5.692;2023-02-01T08:21:17;9.30;99.90
25718;DHT22;13574;52.040;5.692;2023-02-01T08:23:44;9.40;99.90
25718;DHT22;13574;52.040;5.692;2023-02-01T08:26:21;9.40;99.90
25718;DHT22;13574;52.040;5.692;2023-02-01T08:28:55;9.40;99.90
25718;DHT22;13574;52.040;5.692;2023-02-01T08:31:23;9.20;99.90
25718;DHT22;13574;52.040;5.692;2023-02-01T08:33:52;9.40;99.90
25718;DHT22;13574;52.040;5.692;2023-02-01T08:36:19;9.40;99.90
25718;DHT22;13574;52.040;5.692;2023-02-01T08:38:45;9.50;99.90
25718;DHT22;13574;52.040;5.692;2023-02-01T08:41:16;9.40;99.90
25718;DHT22;13574;52.040;5.692;2023-02-01T08:43:43;9.40;99.90
25718;DHT22;13574;52.040;5.692;2023-02-01T08:46:09;9.50;99.90
25718;DHT22;13574;52.040;5.692;2023-02-01T08:48:36;9.50;99.90
25718;DHT22;13574;52.040;5.692;2023-02-01T08:51:06;9.80;99.90
25718;DHT22;13574;52.040;5.692;2023-02-01T08:53:32;9.90;99.90
25718;DHT22;13574;52.040;5.692;2023-02-01T08:55:58;10.10;99.90
25718;DHT22;13574;52.040;5.692;2023-02-01T08:58:24;10.10;99.90
25718;DHT22;13574;52.040;5.692;2023-02-01T09:00:50;10.10;99.90
25718;DHT22;13574;52.040;5.692;2023-02-01T09:03:16;10.00;99.90
25718;DHT22;13574;52.040;5.692;2023-02-01T09:05:42;10.30;99.90
25718;DHT22;13574;52.040;5.692;2023-02-01T09:08:08;10.50;99.90
25718;DHT22;13574;52.040;5.692;2023-02-01T09:10:35;10.40;99.90
25718;DHT22;13574;52.040;5.692;2023-02-01T09:13:01;10.40;99.90
25718;DHT22;13574;52.040;5.692;2023-02-01T09:15:28;10.40;99.90
25718;DHT22;13574;52.040;5.692;2023-02-01T09:17:54;10.10;99.90
25718;DHT22;13574;52.040;5.692;2023-02-01T09:20:19;10.30;99.90
25718;DHT22;13574;52.040;5.692;2023-02-01T09:22:50;10.40;99.90
25718;DHT22;13574;52.040;5.692;2023-02-01T09:25:15;10.60;99.90
25718;DHT22;13574;52.040;5.692;2023-02-01T09:27:41;10.60;99.90
25718;DHT22;13574;52.040;5.692;2023-02-01T09:30:07;10.70;99.90
25718;DHT22;13574;52.040;5.692;2023-02-01T09:32:33;10.80;99.90
25718;DHT22;13574;52.040;5.692;2023-02-01T09:34:59;10.70;99.90
25718;DHT22;13574;52.040;5.692;2023-02-01T09:37:24;10.80;99.90
25718;DHT22;13574;52.040;5.692;2023-02-01T09:39:50;11.10;99.90
25718;DHT22;13574;52.040;5.692;2023-02-01T09:47:21;10.50;99.90
25718;DHT22;13574;52.040;5.692;2023-02-01T09:50:17;10.50;99.90
25718;DHT22;13574;52.040;5.692;2023-02-01T09:55:23;10.80;99.90
25718;DHT22;13574;52.040;5.692;2023-02-01T09:57:58;10.50;99.90
25718;DHT22;13574;52.040;5.692;2023-02-01T10:00:30;10.50;99.90
25718;DHT22;13574;52.040;5.692;2023-02-01T10:02:59;10.30;99.90
25718;DHT22;13574;52.040;5.692;2023-02-01T10:10:45;10.40;99.90
25718;DHT22;13574;52.040;5.692;2023-02-01T10:18:48;10.10;99.90
25718;DHT22;13574;52.040;5.692;2023-02-01T10:21:43;9.90;99.90
25718;DHT22;13574;52.040;5.692;2023-02-01T10:24:25;9.90;99.90
25718;DHT22;13574;52.040;5.692;2023-02-01T10:27:07;9.90;99.90
25718;DHT22;13574;52.040;5.692;2023-02-01T10:29:40;9.80;99.90
25718;DHT22;13574;52.040;5.692;2023-02-01T10:32:24;9.80;99.90
25718;DHT22;13574;52.040;5.692;2023-02-01T10:34:59;9.90;99.90
25718;DHT22;13574;52.040;5.692;2023-02-01T10:37:31;10.10;99.90
25718;DHT22;13574;52.040;5.692;2023-02-01T10:40:08;10.30;99.90
25718;DHT22;13574;52.040;5.692;2023-02-01T10:42:39;10.20;99.90
25718;DHT22;13574;52.040;5.692;2023-02-01T10:45:06;9.80;99.90
25718;DHT22;13574;52.040;5.692;2023-02-01T10:47:32;9.50;99.90
25718;DHT22;13574;52.040;5.692;2023-02-01T10:52:48;9.40;99.90
25718;DHT22;13574;52.040;5.692;2023-02-01T10:55:34;9.30;99.90
25718;DHT22;13574;52.040;5.692;2023-02-01T10:58:04;9.20;99.90
25718;DHT22;13574;52.040;5.692;2023-02-01T11:00:41;9.30;99.90
25718;DHT22;13574;52.040;5.692;2023-02-01T11:05:55;9.20;99.90
25718;DHT22;13574;52.040;5.692;2023-02-01T11:08:21;9.20;99.90
25718;DHT22;13574;52.040;5.692;2023-02-01T11:10:46;9.50;99.90
25718;DHT22;13574;52.040;5.692;2023-02-01T11:13:17;9.40;99.90
25718;DHT22;13574;52.040;5.692;2023-02-01T11:15:47;9.60;99.90
25718;DHT22;13574;52.040;5.692;2023-02-01T11:18:28;9.60;99.90
25718;DHT22;13574;52.040;5.692;2023-02-01T11:20:54;9.90;99.90
25718;DHT22;13574;52.040;5.692;2023-02-01T11:23:30;10.10;99.90
25718;DHT22;13574;52.040;5.692;2023-02-01T11:26:20;10.30;99.90
25718;DHT22;13574;52.040;5.692;2023-02-01T11:29:10;10.20;99.90
25718;DHT22;13574;52.040;5.692;2023-02-01T11:31:36;9.90;99.90
25718;DHT22;13574;52.040;5.692;2023-02-01T11:34:08;9.70;99.90
25718;DHT22;13574;52.040;5.692;2023-02-01T11:36:37;9.80;99.90
25718;DHT22;13574;52.040;5.692;2023-02-01T11:42:16;9.80;99.90
25718;DHT22;13574;52.040;5.692;2023-02-01T11:44:44;9.50;99.90
25718;DHT22;13574;52.040;5.692;2023-02-01T11:47:30;9.30;99.90
25718;DHT22;13574;52.040;5.692;2023-02-01T11:50:02;9.40;99.90
25718;DHT22;13574;52.040;5.692;2023-02-01T12:01:41;9.90;99.90
25718;DHT22;13574;52.040;5.692;2023-02-01T12:44:35;10.30;99.90
25718;DHT22;13574;52.040;5.692;2023-02-01T12:47:18;10.40;99.90
25718;DHT22;13574;52.040;5.692;2023-02-01T12:49:52;10.50;99.90
25718;DHT22;13574;52.040;5.692;2023-02-01T12:52:42;10.60;99.90
25718;DHT22;13574;52.040;5.692;2023-02-01T12:55:15;10.80;99.90
25718;DHT22;13574;52.040;5.692;2023-02-01T12:57:45;10.70;99.90
25718;DHT22;13574;52.040;5.692;2023-02-01T13:00:32;10.70;99.90
25718;DHT22;13574;52.040;5.692;2023-02-01T13:06:06;10.50;99.90
25718;DHT22;13574;52.040;5.692;2023-02-01T13:09:04;10.30;99.90
25718;DHT22;13574;52.040;5.692;2023-02-01T13:11:37;10.30;99.90
25718;DHT22;13574;52.040;5.692;2023-02-01T13:16:51;10.10;99.90
25718;DHT22;13574;52.040;5.692;2023-02-01T13:19:41;10.30;99.90
25718;DHT22;13574;52.040;5.692;2023-02-01T13:22:14;10.10;99.90
25718;DHT22;13574;52.040;5.692;2023-02-01T13:24:52;10.20;99.90
25718;DHT22;13574;52.040;5.692;2023-02-01T13:27:19;10.40;99.90
25718;DHT22;13574;52.040;5.692;2023-02-01T13:29:58;10.20;99.90
25718;DHT22;13574;52.040;5.692;2023-02-01T13:40:29;10.30;99.90
25718;DHT22;13574;52.040;5.692;2023-02-01T13:43:04;10.50;99.90
25718;DHT22;13574;52.040;5.692;2023-02-01T13:45:34;10.50;99.90
25718;DHT22;13574;52.040;5.692;2023-02-01T13:48:04;10.60;99.90
25718;DHT22;13574;52.040;5.692;2023-02-01T13:50:36;10.50;99.90
25718;DHT22;13574;52.040;5.692;2023-02-01T13:53:21;10.50;99.90
25718;DHT22;13574;52.040;5.692;2023-02-01T13:58:35;10.60;99.90
25718;DHT22;13574;52.040;5.692;2023-02-01T14:03:58;10.30;99.90
25718;DHT22;13574;52.040;5.692;2023-02-01T14:09:14;10.50;99.90
25718;DHT22;13574;52.040;5.692;2023-02-01T14:11:50;10.70;99.90
25718;DHT22;13574;52.040;5.692;2023-02-01T14:19:29;11.00;99.90
25718;DHT22;13574;52.040;5.692;2023-02-01T14:22:46;11.00;99.90
25718;DHT22;13574;52.040;5.692;2023-02-01T14:24:55;10.90;99.90
25718;DHT22;13574;52.040;5.692;2023-02-01T14:27:30;11.00;99.90
25718;DHT22;13574;52.040;5.692;2023-02-01T14:30:05;10.90;99.90
25718;DHT22;13574;52.040;5.692;2023-02-01T14:32:38;10.80;99.90
25718;DHT22;13574;52.040;5.692;2023-02-01T14:35:26;10.80;99.90
25718;DHT22;13574;52.040;5.692;2023-02-01T14:37:58;10.80;99.90
25718;DHT22;13574;52.040;5.692;2023-02-01T14:40:27;10.80;99.90
25718;DHT22;13574;52.040;5.692;2023-02-01T14:42:54;11.10;99.90
25718;DHT22;13574;52.040;5.692;2023-02-01T14:55:49;10.70;99.90
25718;DHT22;13574;52.040;5.692;2023-02-01T15:01:00;10.50;99.90
25718;DHT22;13574;52.040;5.692;2023-02-01T15:14:32;10.90;99.90
25718;DHT22;13574;52.040;5.692;2023-02-01T15:16:57;10.60;99.90
25718;DHT22;13574;52.040;5.692;2023-02-01T15:19:26;10.60;99.90
25718;DHT22;13574;52.040;5.692;2023-02-01T15:21:55;10.40;99.90
25718;DHT22;13574;52.040;5.692;2023-02-01T15:24:25;10.30;99.90
25718;DHT22;13574;52.040;5.692;2023-02-01T15:26:52;9.90;99.90
25718;DHT22;13574;52.040;5.692;2023-02-01T15:29:20;9.90;99.90
25718;DHT22;13574;52.040;5.692;2023-02-01T15:31:48;9.90;99.90
25718;DHT22;13574;52.040;5.692;2023-02-01T15:34:14;10.10;99.90
25718;DHT22;13574;52.040;5.692;2023-02-01T15:36:41;10.30;99.90
25718;DHT22;13574;52.040;5.692;2023-02-01T15:39:24;10.40;99.90
25718;DHT22;13574;52.040;5.692;2023-02-01T15:42:08;10.40;99.90
25718;DHT22;13574;52.040;5.692;2023-02-01T15:44:40;10.70;99.90
25718;DHT22;13574;52.040;5.692;2023-02-01T15:47:23;10.70;99.90
25718;DHT22;13574;52.040;5.692;2023-02-01T15:49:55;10.40;99.90
25718;DHT22;13574;52.040;5.692;2023-02-01T15:52:25;10.60;99.90
25718;DHT22;13574;52.040;5.692;2023-02-01T15:54:56;10.70;99.90
25718;DHT22;13574;52.040;5.692;2023-02-01T15:57:28;10.40;99.90
25718;DHT22;13574;52.040;5.692;2023-02-01T16:00:00;10.50;99.90
25718;DHT22;13574;52.040;5.692;2023-02-01T16:02:35;10.60;99.90
25718;DHT22;13574;52.040;5.692;2023-02-01T16:05:03;10.60;99.90
25718;DHT22;13574;52.040;5.692;2023-02-01T16:07:33;10.70;99.90
25718;DHT22;13574;52.040;5.692;2023-02-01T16:10:01;10.60;99.90
25718;DHT22;13574;52.040;5.692;2023-02-01T16:15:05;10.80;99.90
25718;DHT22;13574;52.040;5.692;2023-02-01T16:17:31;10.60;99.90
25718;DHT22;13574;52.040;5.692;2023-02-01T16:19:56;10.60;99.90
25718;DHT22;13574;52.040;5.692;2023-02-01T16:22:23;10.90;99.90
25718;DHT22;13574;52.040;5.692;2023-02-01T16:24:49;10.80;99.90
25718;DHT22;13574;52.040;5.692;2023-02-01T16:27:15;10.80;99.90
25718;DHT22;13574;52.040;5.692;2023-02-01T16:29:41;10.80;99.90
25718;DHT22;13574;52.040;5.692;2023-02-01T16:32:21;10.70;99.90
25718;DHT22;13574;52.040;5.692;2023-02-01T16:34:47;10.90;99.90
25718;DHT22;13574;52.040;5.692;2023-02-01T16:37:22;10.70;99.90
25718;DHT22;13574;52.040;5.692;2023-02-01T16:39:48;10.70;99.90
25718;DHT22;13574;52.040;5.692;2023-02-01T16:42:15;10.80;99.90
25718;DHT22;13574;52.040;5.692;2023-02-01T16:44:41;11.00;99.90
25718;DHT22;13574;52.040;5.692;2023-02-01T16:47:17;11.00;99.90
25718;DHT22;13574;52.040;5.692;2023-02-01T16:49:46;11.20;99.90
25718;DHT22;13574;52.040;5.692;2023-02-01T16:52:19;11.00;99.90
25718;DHT22;13574;52.040;5.692;2023-02-01T16:54:46;10.80;99.90
25718;DHT22;13574;52.040;5.692;2023-02-01T16:57:14;10.70;99.90
25718;DHT22;13574;52.040;5.692;2023-02-01T16:59:41;10.80;99.90
25718;DHT22;13574;52.040;5.692;2023-02-01T17:02:12;10.90;99.90
25718;DHT22;13574;52.040;5.692;2023-02-01T17:04:38;10.60;99.90
25718;DHT22;13574;52.040;5.692;2023-02-01T17:07:04;10.50;99.90
25718;DHT22;13574;52.040;5.692;2023-02-01T17:09:38;10.70;99.90
25718;DHT22;13574;52.040;5.692;2023-02-01T17:12:04;10.60;99.90
25718;DHT22;13574;52.040;5.692;2023-02-01T17:14:36;10.60;99.90
25718;DHT22;13574;52.040;5.692;2023-02-01T17:17:04;10.60;99.90
25718;DHT22;13574;52.040;5.692;2023-02-01T17:19:30;10.60;99.90
25718;DHT22;13574;52.040;5.692;2023-02-01T17:21:57;10.70;99.90
25718;DHT22;13574;52.040;5.692;2023-02-01T17:24:26;10.50;99.90
25718;DHT22;13574;52.040;5.692;2023-02-01T17:26:52;10.70;99.90
25718;DHT22;13574;52.040;5.692;2023-02-01T17:29:18;10.60;99.90
25718;DHT22;13574;52.040;5.692;2023-02-01T17:31:47;10.70;99.90
25718;DHT22;13574;52.040;5.692;2023-02-01T17:34:14;10.70;99.90
25718;DHT22;13574;52.040;5.692;2023-02-01T17:36:41;10.90;99.90
25718;DHT22;13574;52.040;5.692;2023-02-01T17:39:08;10.70;99.90
25718;DHT22;13574;52.040;5.692;2023-02-01T17:41:34;10.70;99.90
25718;DHT22;13574;52.040;5.692;2023-02-01T17:44:00;10.80;99.90
25718;DHT22;13574;52.040;5.692;2023-02-01T17:46:27;10.90;99.90
25718;DHT22;13574;52.040;5.692;2023-02-01T17:48:53;10.90;99.90
25718;DHT22;13574;52.040;5.692;2023-02-01T17:51:26;11.00;99.90
25718;DHT22;13574;52.040;5.692;2023-02-01T17:53:53;11.10;99.90
25718;DHT22;13574;52.040;5.692;2023-02-01T17:56:21;11.20;99.90
25718;DHT22;13574;52.040;5.692;2023-02-01T17:58:48;11.00;99.90
25718;DHT22;13574;52.040;5.692;2023-02-01T18:01:19;11.00;99.90
25718;DHT22;13574;52.040;5.692;2023-02-01T18:03:45;11.10;99.90
25718;DHT22;13574;52.040;5.692;2023-02-01T18:06:31;11.20;99.90
25718;DHT22;13574;52.040;5.692;2023-02-01T18:08:58;11.30;99.90
25718;DHT22;13574;52.040;5.692;2023-02-01T18:11:24;11.10;99.90
25718;DHT22;13574;52.040;5.692;2023-02-01T18:13:51;11.00;99.90
25718;DHT22;13574;52.040;5.692;2023-02-01T18:16:23;11.00;99.90
25718;DHT22;13574;52.040;5.692;2023-02-01T18:18:49;10.90;99.90
25718;DHT22;13574;52.040;5.692;2023-02-01T18:21:16;10.80;99.90
25718;DHT22;13574;52.040;5.692;2023-02-01T18:23:42;10.70;99.90
25718;DHT22;13574;52.040;5.692;2023-02-01T18:26:13;10.70;99.90
25718;DHT22;13574;52.040;5.692;2023-02-01T18:28:39;10.30;99.90